Time;durP1;ratioP1;P1;durP2;ratioP2;P2;SDS_P1;SDS_P2;PMS_P1;PMS_P2;Temp;Humidity;BMP_temperature;BMP_pressure;BME280_temperature;BME280_humidity;BME280_pressure;Samples;Min_cycle;Max_cycle;Signal;HPM_P1;HPM_P2
2023/11/12 00:01:48;;;;;;;28.87;18.43;;;;;;;;;;5020353;28;20653;-68
2023/11/12 00:04:14;;;;;;;31.50;18.17;;;;;;;;;;5019945;28;20186;-68
2023/11/12 00:06:42;;;;;;;33.50;19.43;;;;;;;;;;5042422;28;20186;-68
2023/11/12 00:09:09;;;;;;;35.10;20.33;;;;;;;;;;5031736;28;20665;-68
2023/11/12 00:11:36;;;;;;;35.00;20.27;;;;;;;;;;5028362;28;20205;-68
2023/11/12 00:14:02;;;;;;;30.67;18.70;;;;;;;;;;5025762;28;20248;-68
2023/11/12 00:16:27;;;;;;;30.50;19.03;;;;;;;;;;5018213;28;20277;-67
2023/11/12 00:18:54;;;;;;;28.07;19.07;;;;;;;;;;5022519;28;20214;-67
2023/11/12 00:21:20;;;;;;;32.17;18.53;;;;;;;;;;5023447;28;20340;-68
2023/11/12 00:23:46;;;;;;;33.53;19.77;;;;;;;;;;5014551;28;20670;-68
2023/11/12 00:26:12;;;;;;;33.93;20.27;;;;;;;;;;5028266;28;20186;-68
2023/11/12 00:28:38;;;;;;;28.80;18.97;;;;;;;;;;5023865;28;20178;-67
2023/11/12 00:31:04;;;;;;;37.13;19.90;;;;;;;;;;5026694;28;20224;-68
2023/11/12 00:33:29;;;;;;;31.50;20.27;;;;;;;;;;5016415;28;20728;-67
2023/11/12 00:35:56;;;;;;;32.83;19.50;;;;;;;;;;5030520;28;20194;-68
2023/11/12 00:38:21;;;;;;;28.53;18.30;;;;;;;;;;5032955;28;20232;-68
2023/11/12 00:40:46;;;;;;;31.53;18.67;;;;;;;;;;5030277;28;20261;-68
2023/11/12 00:43:12;;;;;;;31.60;18.47;;;;;;;;;;5026643;28;20202;-68
2023/11/12 00:45:39;;;;;;;35.93;20.17;;;;;;;;;;5028813;28;20215;-68
2023/11/12 00:48:05;;;;;;;30.97;19.40;;;;;;;;;;5021986;28;20187;-68
2023/11/12 00:50:31;;;;;;;32.17;19.77;;;;;;;;;;5026831;28;20561;-68
2023/11/12 00:52:56;;;;;;;33.33;19.57;;;;;;;;;;5030436;28;20267;-68
2023/11/12 00:55:21;;;;;;;31.37;19.07;;;;;;;;;;5029498;28;20198;-68
2023/11/12 00:57:47;;;;;;;28.00;18.23;;;;;;;;;;5021326;28;20211;-68
2023/11/12 01:00:13;;;;;;;30.80;18.77;;;;;;;;;;5028857;28;20189;-68
2023/11/12 01:02:39;;;;;;;32.77;18.53;;;;;;;;;;5029527;28;20190;-68
2023/11/12 01:05:05;;;;;;;33.03;19.43;;;;;;;;;;5023409;28;20196;-68
2023/11/12 01:07:30;;;;;;;33.10;19.93;;;;;;;;;;5028601;28;20197;-68
2023/11/12 01:09:56;;;;;;;35.20;20.38;;;;;;;;;;5030237;28;20186;-68
2023/11/12 01:12:23;;;;;;;29.63;19.13;;;;;;;;;;5030584;28;20240;-68
2023/11/12 01:14:49;;;;;;;32.05;19.50;;;;;;;;;;5024193;28;20700;-68
2023/11/12 01:17:15;;;;;;;31.40;21.07;;;;;;;;;;5021271;28;20230;-68
2023/11/12 01:19:40;;;;;;;33.30;21.37;;;;;;;;;;5040463;28;20258;-67
2023/11/12 01:22:06;;;;;;;30.20;20.03;;;;;;;;;;5028396;28;20246;-68
2023/11/12 01:24:32;;;;;;;40.73;21.60;;;;;;;;;;5015709;28;20230;-68
2023/11/12 01:26:58;;;;;;;36.57;20.93;;;;;;;;;;5020975;28;20202;-67
2023/11/12 01:29:24;;;;;;;34.95;21.75;;;;;;;;;;5028650;28;20183;-68
2023/11/12 01:31:50;;;;;;;34.37;21.23;;;;;;;;;;5026794;28;20693;-68
2023/11/12 01:34:16;;;;;;;27.83;19.23;;;;;;;;;;5023570;28;20202;-68
2023/11/12 01:36:41;;;;;;;30.87;21.03;;;;;;;;;;5021862;28;20751;-68
2023/11/12 01:39:08;;;;;;;31.10;20.67;;;;;;;;;;5018656;28;20206;-69
2023/11/12 01:41:36;;;;;;;32.60;20.67;;;;;;;;;;5016070;28;20288;-67
2023/11/12 01:44:02;;;;;;;32.88;20.27;;;;;;;;;;5028656;28;20190;-68
2023/11/12 01:46:29;;;;;;;31.83;20.53;;;;;;;;;;5025136;28;20201;-68
2023/11/12 01:48:55;;;;;;;38.37;20.70;;;;;;;;;;5032356;28;20158;-68
2023/11/12 01:51:22;;;;;;;33.03;21.13;;;;;;;;;;5033771;28;20272;-68
2023/11/12 01:53:49;;;;;;;30.02;19.80;;;;;;;;;;5014754;28;20202;-68
2023/11/12 01:56:16;;;;;;;30.40;19.87;;;;;;;;;;5020500;28;20196;-69
2023/11/12 01:58:44;;;;;;;33.55;20.38;;;;;;;;;;5023051;28;20297;-68
2023/11/12 02:01:10;;;;;;;39.53;21.73;;;;;;;;;;5030582;28;20606;-68
2023/11/12 02:03:36;;;;;;;32.03;21.23;;;;;;;;;;5027981;28;20602;-69
2023/11/12 02:06:03;;;;;;;35.03;20.83;;;;;;;;;;5039361;28;20732;-68
2023/11/12 02:08:34;;;;;;;38.97;22.63;;;;;;;;;;5029429;28;20182;-68
2023/11/12 02:11:07;;;;;;;38.20;20.33;;;;;;;;;;5014964;28;20599;-68
2023/11/12 02:13:36;;;;;;;29.27;19.80;;;;;;;;;;5021768;28;20198;-67
2023/11/12 02:16:02;;;;;;;35.93;21.60;;;;;;;;;;5019679;28;20226;-68
2023/11/12 02:18:28;;;;;;;34.93;21.10;;;;;;;;;;5023527;28;20241;-67
2023/11/12 02:20:53;;;;;;;30.57;20.77;;;;;;;;;;5029619;28;20306;-68
2023/11/12 02:23:18;;;;;;;31.50;20.93;;;;;;;;;;5024433;28;20209;-68
2023/11/12 02:25:45;;;;;;;30.93;20.93;;;;;;;;;;5024945;28;20500;-68
2023/11/12 02:28:15;;;;;;;37.53;23.23;;;;;;;;;;5023924;28;20202;-68
2023/11/12 02:30:41;;;;;;;32.63;21.73;;;;;;;;;;5029614;28;20213;-68
2023/11/12 02:33:08;;;;;;;34.27;21.30;;;;;;;;;;5026544;28;20664;-68
2023/11/12 02:35:36;;;;;;;36.37;22.77;;;;;;;;;;5027824;28;20225;-68
2023/11/12 02:38:04;;;;;;;33.93;22.60;;;;;;;;;;5019765;28;20211;-68
2023/11/12 02:40:29;;;;;;;35.77;23.20;;;;;;;;;;5028724;28;20640;-68
2023/11/12 02:42:55;;;;;;;33.93;21.73;;;;;;;;;;5027485;28;20253;-68
2023/11/12 02:45:20;;;;;;;34.90;22.47;;;;;;;;;;5026608;28;20204;-69
2023/11/12 02:47:46;;;;;;;41.87;24.13;;;;;;;;;;5021022;28;20186;-68
2023/11/12 02:50:26;;;;;;;34.17;23.23;;;;;;;;;;5035665;28;20655;-68
2023/11/12 02:52:53;;;;;;;39.13;25.83;;;;;;;;;;5027057;28;20225;-67
2023/11/12 02:55:19;;;;;;;37.97;25.30;;;;;;;;;;5026486;28;20190;-68
2023/11/12 02:57:45;;;;;;;43.60;26.10;;;;;;;;;;5014370;28;20217;-68
2023/11/12 03:00:14;;;;;;;35.20;23.00;;;;;;;;;;5023394;28;20199;-69
2023/11/12 03:02:39;;;;;;;41.80;26.57;;;;;;;;;;5023121;28;20285;-67
2023/11/12 03:05:07;;;;;;;43.03;25.87;;;;;;;;;;5028271;28;20625;-67
2023/11/12 03:07:32;;;;;;;36.97;24.40;;;;;;;;;;5026659;28;20683;-67
2023/11/12 03:09:58;;;;;;;41.47;25.30;;;;;;;;;;5029249;28;20194;-68
2023/11/12 03:12:23;;;;;;;36.63;26.03;;;;;;;;;;5015583;28;20533;-67
2023/11/12 03:14:49;;;;;;;36.50;23.53;;;;;;;;;;5025602;28;20210;-67
2023/11/12 03:17:14;;;;;;;42.33;26.67;;;;;;;;;;5026255;28;20725;-68
2023/11/12 03:19:40;;;;;;;36.00;25.63;;;;;;;;;;5022708;28;20276;-67
2023/11/12 03:22:06;;;;;;;41.03;26.47;;;;;;;;;;5033410;28;20225;-67
2023/11/12 03:24:34;;;;;;;41.77;27.73;;;;;;;;;;5027151;28;20251;-67
2023/11/12 03:26:59;;;;;;;39.83;24.93;;;;;;;;;;5024070;28;20719;-67
2023/11/12 03:29:25;;;;;;;47.80;31.37;;;;;;;;;;5025675;28;20190;-68
2023/11/12 03:31:53;;;;;;;44.17;29.33;;;;;;;;;;5027779;28;20193;-67
2023/11/12 03:34:18;;;;;;;43.33;28.70;;;;;;;;;;5028249;28;20190;-68
2023/11/12 03:36:44;;;;;;;41.67;30.03;;;;;;;;;;5027065;28;20185;-68
2023/11/12 03:39:09;;;;;;;40.83;28.27;;;;;;;;;;5023922;28;20205;-68
2023/11/12 03:41:35;;;;;;;43.15;30.17;;;;;;;;;;5019083;28;20218;-68
2023/11/12 03:44:00;;;;;;;47.53;29.80;;;;;;;;;;5021658;28;20687;-68
2023/11/12 03:46:25;;;;;;;47.43;30.20;;;;;;;;;;5027082;28;20194;-68
2023/11/12 03:48:51;;;;;;;44.93;30.53;;;;;;;;;;5028168;28;20228;-68
2023/11/12 03:51:16;;;;;;;44.67;30.30;;;;;;;;;;5024854;28;20197;-68
2023/11/12 03:53:42;;;;;;;46.60;30.70;;;;;;;;;;5026955;28;20216;-68
2023/11/12 03:56:07;;;;;;;47.50;30.60;;;;;;;;;;5016464;28;20269;-68
2023/11/12 03:58:33;;;;;;;42.40;28.83;;;;;;;;;;5023467;28;20202;-68
2023/11/12 04:00:58;;;;;;;47.77;30.43;;;;;;;;;;5026463;28;20568;-68
2023/11/12 04:03:25;;;;;;;49.63;30.60;;;;;;;;;;5016426;28;20212;-68
2023/11/12 04:05:51;;;;;;;48.00;31.80;;;;;;;;;;5028079;28;20636;-68
2023/11/12 04:08:16;;;;;;;48.37;33.93;;;;;;;;;;5022255;28;20179;-68
2023/11/12 04:10:42;;;;;;;47.67;31.47;;;;;;;;;;5022537;28;20209;-68
2023/11/12 04:13:07;;;;;;;44.77;29.27;;;;;;;;;;5022898;28;20241;-67
2023/11/12 04:15:32;;;;;;;43.53;29.47;;;;;;;;;;5011932;28;20225;-68
2023/11/12 04:17:58;;;;;;;51.23;32.67;;;;;;;;;;5025744;28;20325;-68
2023/11/12 04:20:29;;;;;;;51.43;32.30;;;;;;;;;;5028021;28;20635;-68
2023/11/12 04:22:55;;;;;;;45.97;30.77;;;;;;;;;;5024915;28;20186;-68
2023/11/12 04:25:21;;;;;;;44.93;31.27;;;;;;;;;;5018158;28;20210;-68
2023/11/12 04:27:47;;;;;;;50.37;32.50;;;;;;;;;;5024419;28;20232;-68
2023/11/12 04:30:13;;;;;;;43.70;29.30;;;;;;;;;;5019290;28;20249;-68
2023/11/12 04:32:38;;;;;;;42.97;29.37;;;;;;;;;;5025632;28;20194;-68
2023/11/12 04:35:06;;;;;;;39.63;27.83;;;;;;;;;;5030029;28;20186;-68
2023/11/12 04:37:32;;;;;;;51.43;30.23;;;;;;;;;;5028318;28;20695;-68
2023/11/12 04:39:59;;;;;;;47.43;32.07;;;;;;;;;;5022281;28;20281;-68
2023/11/12 04:42:25;;;;;;;47.93;31.90;;;;;;;;;;5030058;28;20186;-68
2023/11/12 04:44:50;;;;;;;43.70;31.00;;;;;;;;;;5018344;28;20197;-68
2023/11/12 04:47:15;;;;;;;48.13;32.33;;;;;;;;;;5011199;28;20553;-67
2023/11/12 04:49:41;;;;;;;43.50;30.67;;;;;;;;;;5024613;28;20190;-68
2023/11/12 04:52:06;;;;;;;43.07;30.03;;;;;;;;;;5013604;28;20191;-67
2023/11/12 04:54:31;;;;;;;44.67;29.40;;;;;;;;;;5011205;28;20282;-67
2023/11/12 04:56:57;;;;;;;45.70;30.80;;;;;;;;;;5021968;28;20201;-67
2023/11/12 04:59:22;;;;;;;48.30;31.63;;;;;;;;;;5029384;28;20710;-67
2023/11/12 05:01:49;;;;;;;45.90;30.87;;;;;;;;;;5020579;28;20194;-67
2023/11/12 05:04:14;;;;;;;48.70;32.60;;;;;;;;;;5019472;28;20209;-67
2023/11/12 05:06:40;;;;;;;47.10;31.70;;;;;;;;;;5021442;28;20504;-67
2023/11/12 05:09:05;;;;;;;51.97;33.77;;;;;;;;;;5026579;28;20186;-67
2023/11/12 05:11:31;;;;;;;48.70;33.00;;;;;;;;;;5028564;28;20197;-67
2023/11/12 05:13:56;;;;;;;48.73;33.40;;;;;;;;;;5027433;28;20242;-67
2023/11/12 05:16:21;;;;;;;44.27;29.23;;;;;;;;;;5027058;28;20210;-68
2023/11/12 05:18:47;;;;;;;52.90;32.90;;;;;;;;;;5027853;28;20218;-67
2023/11/12 05:21:12;;;;;;;51.87;34.13;;;;;;;;;;5027728;28;20652;-67
2023/11/12 05:23:37;;;;;;;46.43;34.27;;;;;;;;;;5030373;28;20194;-67
2023/11/12 05:26:03;;;;;;;51.67;34.93;;;;;;;;;;5025526;28;20205;-68
2023/11/12 05:28:29;;;;;;;49.03;33.10;;;;;;;;;;5020743;28;20186;-67
2023/11/12 05:30:55;;;;;;;49.27;31.53;;;;;;;;;;5011241;28;20278;-68
2023/11/12 05:33:21;;;;;;;51.47;34.87;;;;;;;;;;5016035;28;20186;-68
2023/11/12 05:35:48;;;;;;;56.90;32.37;;;;;;;;;;5032085;28;20642;-68
2023/11/12 05:38:13;;;;;;;45.80;31.60;;;;;;;;;;5025499;28;20214;-68
2023/11/12 05:40:39;;;;;;;53.23;34.70;;;;;;;;;;5029702;28;20200;-68
2023/11/12 05:43:05;;;;;;;51.50;32.60;;;;;;;;;;5024379;28;20190;-68
2023/11/12 05:45:30;;;;;;;47.00;34.43;;;;;;;;;;5013458;28;20190;-68
2023/11/12 05:47:55;;;;;;;54.00;36.40;;;;;;;;;;5032666;28;20190;-68
2023/11/12 05:50:23;;;;;;;49.97;32.87;;;;;;;;;;5031855;28;20189;-68
2023/11/12 05:52:48;;;;;;;49.40;34.20;;;;;;;;;;5035975;28;20208;-68
2023/11/12 05:55:14;;;;;;;51.73;34.13;;;;;;;;;;5020001;28;20645;-67
2023/11/12 05:57:40;;;;;;;58.03;36.43;;;;;;;;;;5026478;28;20291;-67
2023/11/12 06:00:07;;;;;;;55.57;34.50;;;;;;;;;;5026022;28;20649;-67
2023/11/12 06:02:33;;;;;;;54.47;36.67;;;;;;;;;;5026709;28;20190;-67
2023/11/12 06:04:59;;;;;;;64.03;37.90;;;;;;;;;;5029866;28;20581;-67
2023/11/12 06:07:24;;;;;;;53.30;36.33;;;;;;;;;;5015822;28;20182;-67
2023/11/12 06:09:50;;;;;;;60.70;37.50;;;;;;;;;;5024708;28;20268;-67
2023/11/12 06:12:15;;;;;;;56.30;37.03;;;;;;;;;;5018572;28;20199;-67
2023/11/12 06:14:41;;;;;;;57.73;37.27;;;;;;;;;;5026800;28;20222;-68
2023/11/12 06:17:06;;;;;;;58.73;38.57;;;;;;;;;;5028785;28;20442;-67
2023/11/12 06:19:32;;;;;;;55.70;35.67;;;;;;;;;;5027541;28;20333;-67
2023/11/12 06:21:57;;;;;;;53.40;36.07;;;;;;;;;;5033170;28;20198;-67
2023/11/12 06:24:23;;;;;;;55.33;36.53;;;;;;;;;;5028315;28;20198;-67
2023/11/12 06:26:48;;;;;;;59.80;39.03;;;;;;;;;;5017873;28;20272;-68
2023/11/12 06:29:14;;;;;;;55.97;37.73;;;;;;;;;;5020014;28;20194;-68
2023/11/12 06:31:39;;;;;;;60.97;37.30;;;;;;;;;;5014244;28;20660;-68
2023/11/12 06:34:04;;;;;;;54.90;34.77;;;;;;;;;;5030454;28;20183;-68
2023/11/12 06:36:30;;;;;;;54.07;35.20;;;;;;;;;;5028053;28;20214;-68
2023/11/12 06:38:55;;;;;;;50.47;35.25;;;;;;;;;;5021096;28;20658;-67
2023/11/12 06:41:21;;;;;;;51.92;34.70;;;;;;;;;;5027622;28;20228;-67
2023/11/12 06:43:46;;;;;;;59.42;36.10;;;;;;;;;;5019372;28;20633;-67
2023/11/12 06:46:11;;;;;;;53.50;34.30;;;;;;;;;;5015563;28;20202;-67
2023/11/12 06:48:37;;;;;;;53.30;35.50;;;;;;;;;;5028063;28;20274;-67
2023/11/12 06:51:03;;;;;;;50.20;35.50;;;;;;;;;;5017672;28;20194;-68
2023/11/12 06:53:28;;;;;;;55.08;34.65;;;;;;;;;;5025185;28;20669;-67
2023/11/12 06:55:53;;;;;;;48.93;33.50;;;;;;;;;;5025547;28;20276;-68
2023/11/12 06:58:19;;;;;;;49.77;33.97;;;;;;;;;;5025734;28;20232;-67
2023/11/12 07:00:47;;;;;;;51.97;34.38;;;;;;;;;;5022553;28;20191;-68
2023/11/12 07:03:13;;;;;;;48.60;32.97;;;;;;;;;;5016724;28;20186;-68
2023/11/12 07:05:38;;;;;;;58.15;33.28;;;;;;;;;;5021480;28;20192;-68
2023/11/12 07:08:04;;;;;;;47.40;33.85;;;;;;;;;;5023492;28;20197;-68
2023/11/12 07:10:30;;;;;;;46.60;32.70;;;;;;;;;;5027453;28;20293;-67
2023/11/12 07:12:57;;;;;;;50.55;31.77;;;;;;;;;;5023399;28;20515;-67
2023/11/12 07:15:22;;;;;;;46.97;30.98;;;;;;;;;;5019466;28;20759;-68
2023/11/12 07:17:49;;;;;;;48.30;31.07;;;;;;;;;;5024896;28;20378;-67
2023/11/12 07:20:15;;;;;;;48.83;31.08;;;;;;;;;;5027989;28;20551;-67
2023/11/12 07:22:42;;;;;;;47.10;29.80;;;;;;;;;;5020720;28;20208;-67
2023/11/12 07:25:09;;;;;;;44.10;29.83;;;;;;;;;;5027143;28;20275;-68
2023/11/12 07:27:34;;;;;;;41.15;28.42;;;;;;;;;;5021513;28;20194;-68
2023/11/12 07:30:00;;;;;;;44.83;28.42;;;;;;;;;;5025628;28;20547;-67
2023/11/12 07:32:25;;;;;;;45.78;28.30;;;;;;;;;;5026557;28;20196;-67
2023/11/12 07:34:51;;;;;;;42.05;27.80;;;;;;;;;;5020405;28;20193;-67
2023/11/12 07:37:16;;;;;;;44.35;28.13;;;;;;;;;;5017218;28;20195;-66
2023/11/12 07:39:41;;;;;;;43.15;29.10;;;;;;;;;;5020579;28;20585;-68
2023/11/12 07:42:07;;;;;;;43.63;28.23;;;;;;;;;;5019367;28;20204;-67
2023/11/12 07:44:35;;;;;;;41.55;27.95;;;;;;;;;;4329273;28;10000843;-67
2023/11/12 07:47:00;;;;;;;43.67;28.25;;;;;;;;;;5026757;28;20258;-67
2023/11/12 07:49:25;;;;;;;39.60;27.77;;;;;;;;;;5026268;28;20190;-67
2023/11/12 07:51:51;;;;;;;41.30;27.38;;;;;;;;;;5016786;28;20190;-66
2023/11/12 07:54:17;;;;;;;46.75;28.52;;;;;;;;;;5021505;28;20688;-68
2023/11/12 07:56:43;;;;;;;41.15;27.40;;;;;;;;;;5020111;28;20194;-68
2023/11/12 07:59:08;;;;;;;42.70;28.27;;;;;;;;;;5025337;28;20248;-68
2023/11/12 08:01:34;;;;;;;44.08;28.85;;;;;;;;;;5021623;28;20641;-68
2023/11/12 08:03:59;;;;;;;43.05;27.15;;;;;;;;;;5026577;28;20190;-68
2023/11/12 08:06:26;;;;;;;45.70;30.58;;;;;;;;;;5019373;28;20620;-68
2023/11/12 08:08:54;;;;;;;40.95;27.40;;;;;;;;;;5024447;28;20193;-68
2023/11/12 08:11:20;;;;;;;39.95;26.92;;;;;;;;;;5018222;28;20677;-68
2023/11/12 08:13:46;;;;;;;42.38;28.33;;;;;;;;;;5021539;28;20245;-68
2023/11/12 08:16:12;;;;;;;45.77;27.63;;;;;;;;;;5025975;28;20240;-68
2023/11/12 08:18:39;;;;;;;42.03;28.20;;;;;;;;;;5020007;28;20214;-68
2023/11/12 08:21:05;;;;;;;44.58;29.17;;;;;;;;;;5040076;28;20351;-68
2023/11/12 08:23:31;;;;;;;44.15;27.48;;;;;;;;;;5030880;28;20291;-68
2023/11/12 08:25:57;;;;;;;38.30;26.63;;;;;;;;;;5021557;28;20242;-68
2023/11/12 08:28:24;;;;;;;42.70;27.48;;;;;;;;;;5030118;28;20264;-68
2023/11/12 08:30:49;;;;;;;39.00;26.15;;;;;;;;;;5033040;28;20645;-68
2023/11/12 08:33:15;;;;;;;36.72;26.35;;;;;;;;;;5030974;28;20216;-68
2023/11/12 08:35:40;;;;;;;37.00;25.17;;;;;;;;;;5025373;28;20190;-68
2023/11/12 08:38:06;;;;;;;37.10;24.70;;;;;;;;;;5022003;28;20605;-68
2023/11/12 08:40:32;;;;;;;38.22;25.02;;;;;;;;;;5021956;28;20193;-68
2023/11/12 08:42:57;;;;;;;38.10;23.92;;;;;;;;;;5013801;28;20639;-68
2023/11/12 08:45:22;;;;;;;41.67;24.67;;;;;;;;;;5020913;28;20222;-68
2023/11/12 08:47:48;;;;;;;35.13;25.00;;;;;;;;;;5024807;28;20564;-67
2023/11/12 08:50:14;;;;;;;40.08;23.83;;;;;;;;;;5016088;28;20198;-67
2023/11/12 08:52:39;;;;;;;34.83;24.33;;;;;;;;;;5015874;28;20189;-67
2023/11/12 08:55:06;;;;;;;32.75;24.92;;;;;;;;;;5027732;28;20240;-67
2023/11/12 08:57:32;;;;;;;42.88;25.88;;;;;;;;;;5028466;28;20637;-68
2023/11/12 08:59:57;;;;;;;35.95;24.02;;;;;;;;;;5028143;28;20185;-68
2023/11/12 09:02:23;;;;;;;39.78;24.05;;;;;;;;;;5029903;28;20197;-67
2023/11/12 09:04:48;;;;;;;33.13;23.45;;;;;;;;;;5014417;28;20195;-67
2023/11/12 09:07:13;;;;;;;31.08;23.20;;;;;;;;;;5018316;28;20201;-67
2023/11/12 09:09:39;;;;;;;30.77;23.58;;;;;;;;;;5013187;28;20654;-67
2023/11/12 09:12:05;;;;;;;37.67;23.70;;;;;;;;;;5024980;28;20189;-67
2023/11/12 09:14:30;;;;;;;34.05;22.45;;;;;;;;;;5011161;28;20316;-67
2023/11/12 09:16:56;;;;;;;34.85;22.83;;;;;;;;;;5019766;28;20229;-67
2023/11/12 09:19:22;;;;;;;37.05;22.30;;;;;;;;;;5015632;28;20221;-67
2023/11/12 09:21:47;;;;;;;32.13;21.88;;;;;;;;;;5031078;28;20204;-67
2023/11/12 09:24:13;;;;;;;30.75;20.95;;;;;;;;;;5017850;28;20548;-67
2023/11/12 09:26:38;;;;;;;27.90;20.63;;;;;;;;;;5019767;28;20397;-68
2023/11/12 09:29:04;;;;;;;28.17;20.40;;;;;;;;;;5021065;28;20219;-68
2023/11/12 09:31:29;;;;;;;30.70;19.90;;;;;;;;;;5020834;28;20199;-68
2023/11/12 09:33:55;;;;;;;33.63;21.60;;;;;;;;;;5024794;28;20185;-68
2023/11/12 09:36:20;;;;;;;29.13;21.30;;;;;;;;;;5019021;28;20191;-68
2023/11/12 09:38:46;;;;;;;26.55;20.25;;;;;;;;;;5013239;28;20213;-68
2023/11/12 09:41:13;;;;;;;28.38;20.63;;;;;;;;;;5018490;28;20187;-68
2023/11/12 09:43:39;;;;;;;29.90;19.48;;;;;;;;;;5017666;28;20186;-68
2023/11/12 09:46:06;;;;;;;27.55;18.60;;;;;;;;;;5028793;28;20459;-68
2023/11/12 09:48:35;;;;;;;26.80;20.13;;;;;;;;;;5033687;28;20250;-68
2023/11/12 09:51:03;;;;;;;25.88;19.30;;;;;;;;;;5018599;28;20217;-68
2023/11/12 09:53:30;;;;;;;32.30;19.75;;;;;;;;;;5023744;28;20524;-68
2023/11/12 09:55:55;;;;;;;30.23;20.05;;;;;;;;;;5024862;28;20174;-67
2023/11/12 09:58:21;;;;;;;22.38;17.70;;;;;;;;;;5027617;28;20253;-68
2023/11/12 10:00:47;;;;;;;29.08;17.83;;;;;;;;;;5020927;28;20190;-68
2023/11/12 10:03:12;;;;;;;28.33;19.02;;;;;;;;;;5022295;28;20265;-68
2023/11/12 10:05:40;;;;;;;27.05;17.80;;;;;;;;;;5023893;28;20194;-68
2023/11/12 10:08:06;;;;;;;29.50;19.77;;;;;;;;;;5017537;28;20193;-68
2023/11/12 10:10:33;;;;;;;28.73;19.08;;;;;;;;;;5038846;28;20194;-67
2023/11/12 10:13:02;;;;;;;30.15;20.20;;;;;;;;;;5022557;28;20284;-68
2023/11/12 10:15:31;;;;;;;31.60;19.90;;;;;;;;;;5030330;28;20210;-68
2023/11/12 10:17:56;;;;;;;28.65;19.02;;;;;;;;;;5020746;28;20230;-68
2023/11/12 10:20:26;;;;;;;29.23;21.40;;;;;;;;;;5021105;28;20214;-68
2023/11/12 10:22:52;;;;;;;29.80;20.50;;;;;;;;;;5026456;28;20261;-68
2023/11/12 10:25:49;;;;;;;27.45;21.02;;;;;;;;;;5019121;28;20325;-68
2023/11/12 10:28:15;;;;;;;30.23;22.27;;;;;;;;;;5020187;28;20194;-68
2023/11/12 10:30:42;;;;;;;34.28;23.85;;;;;;;;;;5031718;28;20190;-68
2023/11/12 10:33:23;;;;;;;33.53;24.05;;;;;;;;;;5027097;28;20193;-68
2023/11/12 10:35:49;;;;;;;30.40;22.52;;;;;;;;;;5018808;28;20182;-68
2023/11/12 10:38:17;;;;;;;31.05;22.23;;;;;;;;;;5024961;28;20211;-68
2023/11/12 10:40:57;;;;;;;33.05;23.42;;;;;;;;;;5018762;28;20329;-68
2023/11/12 10:43:23;;;;;;;36.22;23.75;;;;;;;;;;5025635;28;20189;-68
2023/11/12 10:45:57;;;;;;;30.38;23.38;;;;;;;;;;5022766;28;20761;-68
2023/11/12 10:48:31;;;;;;;36.47;24.42;;;;;;;;;;5026858;28;20597;-68
2023/11/12 10:51:00;;;;;;;32.53;22.90;;;;;;;;;;5018948;28;20637;-68
2023/11/12 10:53:30;;;;;;;34.42;24.45;;;;;;;;;;5024558;28;20569;-68
2023/11/12 10:55:59;;;;;;;30.65;23.15;;;;;;;;;;5016566;28;20230;-68
2023/11/12 10:58:26;;;;;;;36.90;24.17;;;;;;;;;;5023321;28;20221;-68
2023/11/12 11:00:59;;;;;;;32.20;23.92;;;;;;;;;;5016739;28;20248;-69
2023/11/12 11:03:26;;;;;;;32.97;22.75;;;;;;;;;;5024149;28;20243;-68
2023/11/12 11:05:54;;;;;;;30.77;21.27;;;;;;;;;;5020914;28;20186;-68
2023/11/12 11:08:19;;;;;;;30.08;21.85;;;;;;;;;;5036889;28;20197;-68
2023/11/12 11:10:45;;;;;;;31.45;21.02;;;;;;;;;;5019907;28;20177;-68
2023/11/12 11:13:11;;;;;;;33.72;22.77;;;;;;;;;;5026228;28;20194;-68
2023/11/12 11:15:54;;;;;;;30.23;21.30;;;;;;;;;;5025252;28;20588;-68
2023/11/12 11:18:31;;;;;;;28.88;20.40;;;;;;;;;;5013191;28;20241;-68
2023/11/12 11:21:02;;;;;;;25.95;19.73;;;;;;;;;;5023435;28;20190;-69
2023/11/12 11:23:47;;;;;;;26.63;19.73;;;;;;;;;;5014390;28;20202;-67
2023/11/12 11:26:25;;;;;;;26.42;19.08;;;;;;;;;;5023157;28;20190;-68
2023/11/12 11:29:07;;;;;;;27.17;19.95;;;;;;;;;;5022839;28;20509;-67
2023/11/12 11:31:36;;;;;;;30.92;20.55;;;;;;;;;;5035702;28;20269;-68
2023/11/12 11:34:04;;;;;;;27.77;19.17;;;;;;;;;;5019010;28;20561;-67
2023/11/12 11:36:30;;;;;;;29.05;21.42;;;;;;;;;;5021170;28;20533;-67
2023/11/12 11:39:02;;;;;;;24.40;17.85;;;;;;;;;;5020886;28;20282;-67
2023/11/12 11:41:27;;;;;;;25.90;18.23;;;;;;;;;;5010102;28;20209;-67
2023/11/12 11:43:53;;;;;;;33.65;18.30;;;;;;;;;;5020498;28;20279;-67
2023/11/12 11:46:18;;;;;;;21.27;16.13;;;;;;;;;;5024889;28;20198;-68
2023/11/12 11:48:44;;;;;;;24.27;17.70;;;;;;;;;;5021131;28;20228;-68
2023/11/12 11:51:27;;;;;;;26.38;18.92;;;;;;;;;;5024797;28;20251;-68
2023/11/12 11:53:57;;;;;;;27.55;18.45;;;;;;;;;;5027192;28;20437;-68
2023/11/12 11:56:26;;;;;;;32.92;21.27;;;;;;;;;;5027791;28;20226;-67
2023/11/12 11:58:52;;;;;;;28.90;20.55;;;;;;;;;;5021272;28;20275;-68
2023/11/12 12:01:18;;;;;;;27.95;18.02;;;;;;;;;;5018738;28;20669;-67
2023/11/12 12:03:43;;;;;;;25.33;18.10;;;;;;;;;;5024477;28;20351;-67
2023/11/12 12:06:21;;;;;;;27.55;18.15;;;;;;;;;;5021404;28;20289;-68
2023/11/12 12:08:51;;;;;;;24.05;16.98;;;;;;;;;;5015381;28;20190;-66
2023/11/12 12:11:17;;;;;;;25.25;17.10;;;;;;;;;;5021232;28;20234;-68
2023/11/12 12:13:56;;;;;;;26.90;18.05;;;;;;;;;;5023563;28;20277;-68
2023/11/12 12:16:29;;;;;;;22.70;16.38;;;;;;;;;;5018792;28;20233;-68
2023/11/12 12:18:55;;;;;;;25.38;16.25;;;;;;;;;;5010671;28;20230;-67
2023/11/12 12:21:20;;;;;;;22.88;15.63;;;;;;;;;;5018029;28;20283;-67
2023/11/12 12:23:47;;;;;;;22.15;14.75;;;;;;;;;;5019276;28;20277;-67
2023/11/12 12:26:12;;;;;;;21.73;14.23;;;;;;;;;;5021864;28;20190;-67
2023/11/12 12:28:37;;;;;;;19.30;12.30;;;;;;;;;;5019631;28;20201;-67
2023/11/12 12:31:03;;;;;;;17.10;11.70;;;;;;;;;;5022630;28;20203;-67
2023/11/12 12:33:30;;;;;;;17.17;12.00;;;;;;;;;;5012727;28;20966;-68
2023/11/12 12:35:59;;;;;;;18.27;11.32;;;;;;;;;;5022105;28;20197;-68
2023/11/12 12:38:25;;;;;;;16.52;11.18;;;;;;;;;;5015919;28;20276;-68
2023/11/12 12:41:00;;;;;;;17.90;11.10;;;;;;;;;;5012994;28;20709;-68
2023/11/12 12:43:26;;;;;;;16.45;10.48;;;;;;;;;;5020555;28;20229;-67
2023/11/12 12:45:55;;;;;;;16.88;9.85;;;;;;;;;;5018287;28;20198;-68
2023/11/12 12:48:23;;;;;;;15.63;9.63;;;;;;;;;;5021010;28;20685;-67
2023/11/12 12:50:58;;;;;;;14.75;9.70;;;;;;;;;;5013816;28;20206;-67
2023/11/12 12:53:25;;;;;;;14.88;9.63;;;;;;;;;;5023857;28;20186;-67
2023/11/12 12:55:52;;;;;;;12.88;9.68;;;;;;;;;;5014847;28;20266;-67
2023/11/12 12:58:19;;;;;;;14.95;9.80;;;;;;;;;;5023079;28;20214;-69
2023/11/12 13:00:44;;;;;;;11.45;8.85;;;;;;;;;;5023596;28;20194;-69
2023/11/12 13:03:30;;;;;;;12.82;9.13;;;;;;;;;;5023679;28;20736;-68
2023/11/12 13:05:57;;;;;;;13.75;9.05;;;;;;;;;;5025056;28;20222;-68
2023/11/12 13:08:23;;;;;;;12.02;8.70;;;;;;;;;;5022102;28;20178;-68
2023/11/12 13:10:49;;;;;;;11.82;8.55;;;;;;;;;;5023886;28;20573;-69
2023/11/12 13:13:17;;;;;;;13.07;8.45;;;;;;;;;;5019819;28;20282;-69
2023/11/12 13:15:44;;;;;;;12.20;8.52;;;;;;;;;;5037340;28;20654;-69
2023/11/12 13:18:11;;;;;;;14.50;9.18;;;;;;;;;;5019687;28;20234;-68
2023/11/12 13:20:36;;;;;;;11.18;8.07;;;;;;;;;;5023019;28;20193;-68
2023/11/12 13:23:01;;;;;;;13.30;9.65;;;;;;;;;;5015270;28;20198;-69
2023/11/12 13:25:27;;;;;;;15.15;8.90;;;;;;;;;;5013922;28;20281;-68
2023/11/12 13:27:54;;;;;;;11.70;8.40;;;;;;;;;;5023171;28;20190;-68
2023/11/12 13:30:20;;;;;;;15.07;8.63;;;;;;;;;;5023700;28;20186;-68
2023/11/12 13:32:46;;;;;;;14.38;8.23;;;;;;;;;;5028065;28;20327;-68
2023/11/12 13:35:12;;;;;;;16.20;7.93;;;;;;;;;;5022913;28;20197;-68
2023/11/12 13:37:38;;;;;;;11.07;7.72;;;;;;;;;;5024427;28;20202;-68
2023/11/12 13:40:13;;;;;;;12.38;7.57;;;;;;;;;;5022109;28;20190;-68
2023/11/12 13:42:43;;;;;;;11.07;8.07;;;;;;;;;;5021278;28;20193;-67
2023/11/12 13:45:09;;;;;;;14.30;7.85;;;;;;;;;;5022042;28;20205;-68
2023/11/12 13:47:35;;;;;;;15.23;8.57;;;;;;;;;;5024850;28;20224;-68
2023/11/12 13:50:01;;;;;;;14.48;7.90;;;;;;;;;;5023183;28;20218;-68
2023/11/12 13:52:27;;;;;;;10.30;7.50;;;;;;;;;;5025940;28;20187;-68
2023/11/12 13:54:53;;;;;;;10.80;8.00;;;;;;;;;;5024924;28;20193;-68
2023/11/12 13:57:19;;;;;;;11.15;8.60;;;;;;;;;;5023732;28;20291;-68
2023/11/12 13:59:46;;;;;;;11.93;8.55;;;;;;;;;;5023594;28;20302;-68
2023/11/12 14:02:11;;;;;;;14.27;8.15;;;;;;;;;;5020698;28;20193;-68
2023/11/12 14:04:38;;;;;;;13.48;8.52;;;;;;;;;;5024944;28;20193;-68
2023/11/12 14:07:05;;;;;;;12.18;8.10;;;;;;;;;;5020228;28;20183;-68
2023/11/12 14:09:34;;;;;;;11.40;8.88;;;;;;;;;;5021663;28;20508;-68
2023/11/12 14:12:04;;;;;;;17.00;9.40;;;;;;;;;;5021947;28;20277;-68
2023/11/12 14:14:30;;;;;;;12.52;8.52;;;;;;;;;;5016486;28;20290;-68
2023/11/12 14:16:57;;;;;;;14.18;9.02;;;;;;;;;;5023944;28;20218;-68